Time;durP1;ratioP1;P1;durP2;ratioP2;P2;SDS_P1;SDS_P2;PMS_P1;PMS_P2;Temp;Humidity;BMP_temperature;BMP_pressure;BME280_temperature;BME280_humidity;BME280_pressure;Samples;Min_cycle;Max_cycle;Signal;HPM_P1;HPM_P2
2022/05/13 00:01:30;;;;;;;;;;;20.80;43.20;;;;;;5096630;28;19920;-49
2022/05/13 00:03:57;;;;;;;;;;;20.80;43.20;;;;;;5094714;28;19926;-49
2022/05/13 00:06:23;;;;;;;;;;;20.70;43.10;;;;;;5096162;28;19920;-51
2022/05/13 00:08:51;;;;;;;;;;;20.80;43.20;;;;;;5095734;28;19920;-50
2022/05/13 00:11:18;;;;;;;;;;;20.80;43.10;;;;;;5094855;28;19963;-48
2022/05/13 00:13:45;;;;;;;;;;;20.80;43.20;;;;;;5094690;28;19926;-49
2022/05/13 00:16:12;;;;;;;;;;;20.80;43.10;;;;;;5095418;28;20015;-49
2022/05/13 00:18:38;;;;;;;;;;;20.80;43.10;;;;;;5095513;28;19924;-50
2022/05/13 00:21:05;;;;;;;;;;;20.80;43.10;;;;;;5095961;28;19928;-48
2022/05/13 00:23:32;;;;;;;;;;;20.80;43.10;;;;;;5094766;28;19920;-52
2022/05/13 00:26:00;;;;;;;;;;;20.80;43.20;;;;;;5096113;28;19970;-48
2022/05/13 00:28:27;;;;;;;;;;;20.80;43.10;;;;;;5096091;28;19974;-52
2022/05/13 00:30:53;;;;;;;;;;;20.70;43.00;;;;;;5094736;28;20364;-50
2022/05/13 00:33:20;;;;;;;;;;;20.70;43.00;;;;;;5094390;28;19927;-50
2022/05/13 00:35:47;;;;;;;;;;;20.70;43.00;;;;;;5095688;28;20022;-49
2022/05/13 00:38:14;;;;;;;;;;;20.70;43.00;;;;;;5094219;28;19920;-50
2022/05/13 00:40:41;;;;;;;;;;;20.70;43.00;;;;;;5095651;28;20237;-51
2022/05/13 00:43:10;;;;;;;;;;;20.70;43.00;;;;;;5095368;28;20012;-50
2022/05/13 00:45:36;;;;;;;;;;;20.70;43.00;;;;;;5094984;28;19920;-51
2022/05/13 00:48:03;;;;;;;;;;;20.70;43.00;;;;;;5094270;28;19926;-51
2022/05/13 00:50:31;;;;;;;;;;;20.70;43.00;;;;;;5094480;28;19946;-51
2022/05/13 00:52:57;;;;;;;;;;;20.70;43.10;;;;;;5093884;28;20015;-51
2022/05/13 00:55:25;;;;;;;;;;;20.70;43.00;;;;;;5094181;28;19940;-49
2022/05/13 00:57:52;;;;;;;;;;;20.70;43.00;;;;;;5094659;28;19927;-49
2022/05/13 01:00:20;;;;;;;;;;;20.70;43.00;;;;;;5093522;28;20379;-50
2022/05/13 01:02:48;;;;;;;;;;;20.70;43.00;;;;;;5093920;28;20396;-52
2022/05/13 01:05:15;;;;;;;;;;;20.70;43.00;;;;;;5093649;28;19974;-54
2022/05/13 01:07:42;;;;;;;;;;;20.70;43.00;;;;;;5093784;28;19964;-52
2022/05/13 01:10:10;;;;;;;;;;;20.70;43.00;;;;;;5095201;28;19920;-50
2022/05/13 01:12:37;;;;;;;;;;;20.70;43.00;;;;;;5093763;28;20023;-53
2022/05/13 01:15:05;;;;;;;;;;;20.70;43.00;;;;;;5094497;28;19990;-52
2022/05/13 01:20:20;;;;;;;;;;;20.70;43.00;;;;;;5094958;28;19920;-51
2022/05/13 01:22:49;;;;;;;;;;;20.70;43.00;;;;;;5093809;28;19967;-54
2022/05/13 01:25:17;;;;;;;;;;;20.70;43.00;;;;;;5094703;28;19927;-50
2022/05/13 01:27:44;;;;;;;;;;;20.70;43.00;;;;;;5093984;28;19994;-48
2022/05/13 01:30:12;;;;;;;;;;;20.70;43.00;;;;;;5093898;28;20238;-50
2022/05/13 01:32:38;;;;;;;;;;;20.70;43.00;;;;;;5094366;28;19920;-52
2022/05/13 01:35:05;;;;;;;;;;;20.70;43.00;;;;;;5094860;28;19981;-50
2022/05/13 01:37:32;;;;;;;;;;;20.70;43.00;;;;;;5093725;28;19948;-52
2022/05/13 01:40:01;;;;;;;;;;;20.70;43.00;;;;;;5094165;28;19951;-53
2022/05/13 01:42:28;;;;;;;;;;;20.70;43.00;;;;;;5093962;28;19973;-49
2022/05/13 01:44:55;;;;;;;;;;;20.70;43.00;;;;;;5093533;28;19966;-51
2022/05/13 01:47:21;;;;;;;;;;;20.70;43.00;;;;;;5093139;28;20027;-51
2022/05/13 01:49:48;;;;;;;;;;;20.70;43.00;;;;;;5094138;28;20383;-52
2022/05/13 01:52:14;;;;;;;;;;;20.70;43.00;;;;;;5093912;28;19927;-48
2022/05/13 01:54:41;;;;;;;;;;;20.70;43.00;;;;;;5093352;28;19966;-51
2022/05/13 01:57:09;;;;;;;;;;;20.70;43.00;;;;;;5092628;28;19920;-51
2022/05/13 01:59:36;;;;;;;;;;;20.70;43.00;;;;;;5093311;28;19965;-48
2022/05/13 02:02:02;;;;;;;;;;;20.70;43.00;;;;;;5092679;28;20452;-50
2022/05/13 02:04:29;;;;;;;;;;;20.70;43.00;;;;;;5094131;28;19921;-49
2022/05/13 02:06:56;;;;;;;;;;;20.70;43.00;;;;;;5092555;28;19951;-51
2022/05/13 02:09:23;;;;;;;;;;;20.70;43.00;;;;;;5094320;28;20324;-53
2022/05/13 02:11:50;;;;;;;;;;;20.70;43.00;;;;;;5093740;28;20222;-49
2022/05/13 02:14:18;;;;;;;;;;;20.70;43.00;;;;;;5092491;28;19926;-51
2022/05/13 02:16:45;;;;;;;;;;;20.70;43.00;;;;;;5093882;28;20381;-49
2022/05/13 02:19:11;;;;;;;;;;;20.70;43.00;;;;;;5092699;28;20405;-51
2022/05/13 02:21:38;;;;;;;;;;;20.70;43.00;;;;;;5093798;28;19920;-49
2022/05/13 02:24:05;;;;;;;;;;;20.70;43.00;;;;;;5093960;28;19924;-53
2022/05/13 02:26:32;;;;;;;;;;;20.70;43.00;;;;;;5093082;28;19928;-50
2022/05/13 02:29:01;;;;;;;;;;;20.60;42.90;;;;;;5092806;28;19920;-50
2022/05/13 02:31:29;;;;;;;;;;;20.70;43.00;;;;;;5093952;28;19963;-51
2022/05/13 02:33:56;;;;;;;;;;;20.70;43.00;;;;;;5093085;28;19920;-54
2022/05/13 02:36:23;;;;;;;;;;;20.70;43.00;;;;;;5092414;28;20331;-53
2022/05/13 02:38:49;;;;;;;;;;;20.70;43.00;;;;;;5092797;28;19920;-51
2022/05/13 02:41:16;;;;;;;;;;;20.70;43.00;;;;;;5092333;28;20022;-54
2022/05/13 02:43:44;;;;;;;;;;;20.60;42.90;;;;;;5093321;28;20245;-52
2022/05/13 02:46:10;;;;;;;;;;;20.70;43.00;;;;;;5092829;28;19920;-55
2022/05/13 02:48:38;;;;;;;;;;;20.70;43.00;;;;;;5092400;28;19919;-55
2022/05/13 02:51:05;;;;;;;;;;;20.70;43.00;;;;;;5092913;28;19920;-50
2022/05/13 02:53:32;;;;;;;;;;;20.60;42.90;;;;;;5094630;28;19924;-51
2022/05/13 02:55:58;;;;;;;;;;;20.60;42.90;;;;;;5097612;28;19926;-51
2022/05/13 02:58:25;;;;;;;;;;;20.60;42.90;;;;;;5096532;28;19974;-50
2022/05/13 03:00:52;;;;;;;;;;;20.70;43.00;;;;;;5097241;28;19981;-52
2022/05/13 03:03:19;;;;;;;;;;;20.60;42.90;;;;;;5096799;28;20414;-52
2022/05/13 03:05:47;;;;;;;;;;;20.60;42.90;;;;;;5096487;28;19955;-50
2022/05/13 03:08:14;;;;;;;;;;;20.60;42.90;;;;;;5092179;28;19939;-52
2022/05/13 03:10:41;;;;;;;;;;;20.60;42.90;;;;;;5092441;28;19940;-52
2022/05/13 03:13:09;;;;;;;;;;;20.60;42.90;;;;;;5077011;28;20346;-51
2022/05/13 03:15:35;;;;;;;;;;;20.60;42.90;;;;;;5075572;28;19927;-50
2022/05/13 03:18:02;;;;;;;;;;;20.60;42.90;;;;;;5075324;28;19920;-51
2022/05/13 03:20:29;;;;;;;;;;;20.60;42.90;;;;;;5092597;28;20412;-48
2022/05/13 03:22:57;;;;;;;;;;;20.60;42.90;;;;;;5076736;28;19921;-52
2022/05/13 03:25:23;;;;;;;;;;;20.60;42.90;;;;;;5076592;28;19921;-52
2022/05/13 03:27:50;;;;;;;;;;;20.60;42.90;;;;;;5076607;28;20007;-51
2022/05/13 03:30:17;;;;;;;;;;;20.60;42.90;;;;;;5075394;28;19924;-49
2022/05/13 03:32:44;;;;;;;;;;;20.60;42.90;;;;;;5075459;28;19943;-49
2022/05/13 03:35:11;;;;;;;;;;;20.60;42.90;;;;;;5091836;28;19926;-48
2022/05/13 03:37:38;;;;;;;;;;;20.60;43.50;;;;;;5074719;28;19978;-48
2022/05/13 03:40:07;;;;;;;;;;;20.60;42.90;;;;;;5092606;28;19921;-49
2022/05/13 03:42:33;;;;;;;;;;;20.60;42.90;;;;;;5091391;28;19921;-52
2022/05/13 03:45:00;;;;;;;;;;;20.60;42.90;;;;;;5092408;28;19920;-53
2022/05/13 03:47:26;;;;;;;;;;;20.60;42.90;;;;;;5075448;28;19926;-54
2022/05/13 03:49:53;;;;;;;;;;;20.60;42.90;;;;;;5074982;28;20405;-53
2022/05/13 03:52:20;;;;;;;;;;;20.60;42.90;;;;;;5074914;28;19952;-52
2022/05/13 03:54:46;;;;;;;;;;;20.60;42.90;;;;;;5083367;28;19928;-50
2022/05/13 03:57:14;;;;;;;;;;;20.60;42.90;;;;;;5074566;28;19942;-54
2022/05/13 03:59:41;;;;;;;;;;;20.60;42.90;;;;;;5074755;28;19960;-54
2022/05/13 04:02:07;;;;;;;;;;;20.60;42.90;;;;;;5074636;28;19963;-50
2022/05/13 04:08:56;;;;;;;;;;;20.60;42.90;;;;;;5076306;28;19967;-55
2022/05/13 04:10:07;;;;;;;;;;;20.60;42.90;;;;;;5075502;28;20036;-52
2022/05/13 04:18:04;;;;;;;;;;;20.60;42.80;;;;;;5075936;28;19963;-53
2022/05/13 04:20:32;;;;;;;;;;;20.60;42.80;;;;;;5092002;28;20024;-52
2022/05/13 04:22:58;;;;;;;;;;;20.60;42.90;;;;;;5074362;28;19950;-51
2022/05/13 04:25:26;;;;;;;;;;;20.60;42.80;;;;;;5057516;28;19927;-49
2022/05/13 04:27:54;;;;;;;;;;;20.60;42.80;;;;;;5075300;28;19925;-54
2022/05/13 04:30:20;;;;;;;;;;;20.60;42.80;;;;;;5074206;28;19935;-50
2022/05/13 04:32:47;;;;;;;;;;;20.60;42.80;;;;;;5074614;28;19989;-53
2022/05/13 04:35:14;;;;;;;;;;;20.60;42.80;;;;;;5074142;28;19924;-51
2022/05/13 04:37:41;;;;;;;;;;;20.60;42.90;;;;;;5073843;28;19920;-48
2022/05/13 04:40:08;;;;;;;;;;;20.60;42.80;;;;;;5091109;28;20380;-51
2022/05/13 04:42:52;;;;;;;;;;;20.60;42.80;;;;;;5091307;28;19920;-53
2022/05/13 04:45:23;;;;;;;;;;;20.60;42.90;;;;;;5073744;28;20269;-51
2022/05/13 04:50:38;;;;;;;;;;;20.60;42.80;;;;;;5074142;28;19921;-49
2022/05/13 04:53:04;;;;;;;;;;;20.60;42.80;;;;;;5090706;28;19920;-48
2022/05/13 04:55:31;;;;;;;;;;;20.60;42.80;;;;;;5073919;28;20361;-50
2022/05/13 04:57:58;;;;;;;;;;;20.60;42.80;;;;;;5075326;28;20378;-50
2022/05/13 05:00:26;;;;;;;;;;;20.60;42.90;;;;;;5075106;28;19920;-48
2022/05/13 05:02:52;;;;;;;;;;;20.60;42.90;;;;;;5073721;28;19924;-48
2022/05/13 05:05:19;;;;;;;;;;;20.60;42.80;;;;;;5074806;28;19952;-49
2022/05/13 05:07:45;;;;;;;;;;;20.60;42.80;;;;;;5074811;28;20098;-51
2022/05/13 05:10:12;;;;;;;;;;;20.60;42.90;;;;;;5090977;28;19920;-48
2022/05/13 05:12:39;;;;;;;;;;;20.60;42.80;;;;;;5073132;28;19920;-53
2022/05/13 05:15:06;;;;;;;;;;;20.60;42.80;;;;;;5074102;28;20035;-49
2022/05/13 05:17:34;;;;;;;;;;;20.60;42.90;;;;;;5089727;28;19925;-50
2022/05/13 05:20:01;;;;;;;;;;;20.60;42.80;;;;;;5090607;28;19921;-47
2022/05/13 05:22:28;;;;;;;;;;;20.60;42.90;;;;;;5090277;28;19986;-49
2022/05/13 05:24:54;;;;;;;;;;;20.60;42.80;;;;;;5090648;28;20342;-48
2022/05/13 05:27:21;;;;;;;;;;;20.60;42.80;;;;;;5073413;28;19920;-51
2022/05/13 05:29:48;;;;;;;;;;;20.60;42.80;;;;;;5074242;28;20376;-47
2022/05/13 05:32:14;;;;;;;;;;;20.60;42.80;;;;;;5073750;28;19920;-49
2022/05/13 05:34:42;;;;;;;;;;;20.60;42.80;;;;;;5074286;28;19920;-48
2022/05/13 05:37:09;;;;;;;;;;;20.60;42.80;;;;;;5072827;28;19920;-48
2022/05/13 05:39:35;;;;;;;;;;;20.60;42.80;;;;;;5074127;28;19924;-47
2022/05/13 05:42:02;;;;;;;;;;;20.60;42.80;;;;;;5072981;28;19986;-49
2022/05/13 05:44:29;;;;;;;;;;;20.60;42.80;;;;;;5072614;28;19959;-49
2022/05/13 05:46:56;;;;;;;;;;;20.60;42.80;;;;;;5089526;28;20241;-50
2022/05/13 05:49:22;;;;;;;;;;;20.60;42.80;;;;;;5072836;28;20023;-53
2022/05/13 05:51:50;;;;;;;;;;;20.60;42.80;;;;;;5074397;28;19920;-49
2022/05/13 05:57:16;;;;;;;;;;;20.60;42.70;;;;;;5074038;28;19920;-50
2022/05/13 05:59:43;;;;;;;;;;;20.60;42.80;;;;;;5090188;28;19963;-49
2022/05/13 06:02:10;;;;;;;;;;;20.60;42.70;;;;;;5073939;28;19920;-48
2022/05/13 06:04:36;;;;;;;;;;;20.60;42.70;;;;;;5089015;28;19921;-51
2022/05/13 06:07:05;;;;;;;;;;;20.50;42.70;;;;;;5073678;28;20348;-47
2022/05/13 06:09:32;;;;;;;;;;;20.60;42.70;;;;;;5073742;28;20365;-50
2022/05/13 06:11:58;;;;;;;;;;;20.60;42.70;;;;;;5072916;28;19921;-47
2022/05/13 06:14:26;;;;;;;;;;;20.60;42.70;;;;;;5073396;28;20321;-47
2022/05/13 06:16:52;;;;;;;;;;;20.60;42.70;;;;;;5072194;28;20440;-48
2022/05/13 06:19:19;;;;;;;;;;;20.60;42.70;;;;;;5089667;28;20325;-49
2022/05/13 06:21:45;;;;;;;;;;;20.60;42.70;;;;;;5089147;28;19921;-50
2022/05/13 06:24:14;;;;;;;;;;;20.60;42.70;;;;;;5074073;28;19921;-49
2022/05/13 06:26:41;;;;;;;;;;;20.60;42.70;;;;;;5073271;28;20351;-50
2022/05/13 06:29:08;;;;;;;;;;;20.60;42.70;;;;;;5075592;28;19920;-47
2022/05/13 06:31:36;;;;;;;;;;;20.60;42.60;;;;;;5078070;28;19967;-48
2022/05/13 06:34:02;;;;;;;;;;;20.60;42.70;;;;;;5076689;28;19920;-49
2022/05/13 06:36:29;;;;;;;;;;;20.60;42.70;;;;;;5077744;28;19935;-49
2022/05/13 06:38:57;;;;;;;;;;;20.60;42.70;;;;;;5076231;28;19920;-49
2022/05/13 06:41:25;;;;;;;;;;;20.60;42.70;;;;;;5093154;28;20413;-47
2022/05/13 06:43:52;;;;;;;;;;;20.60;42.70;;;;;;5077652;28;19927;-49
2022/05/13 06:46:18;;;;;;;;;;;20.60;42.70;;;;;;5093146;28;20387;-47
2022/05/13 06:48:45;;;;;;;;;;;20.60;42.70;;;;;;5077468;28;20018;-53
2022/05/13 06:51:11;;;;;;;;;;;20.60;42.70;;;;;;5076039;28;19943;-51
2022/05/13 06:53:38;;;;;;;;;;;20.60;42.70;;;;;;5077485;28;19994;-49
2022/05/13 06:56:05;;;;;;;;;;;20.60;42.70;;;;;;5092927;28;19921;-49
2022/05/13 06:58:34;;;;;;;;;;;20.60;42.70;;;;;;5076982;28;19921;-52
2022/05/13 07:01:01;;;;;;;;;;;20.60;42.70;;;;;;5076822;28;19925;-50
2022/05/13 07:03:28;;;;;;;;;;;20.60;42.70;;;;;;5076540;28;19921;-50
2022/05/13 07:05:55;;;;;;;;;;;20.60;42.70;;;;;;5077224;28;19924;-53
2022/05/13 07:08:21;;;;;;;;;;;20.60;42.70;;;;;;5075457;28;19928;-52
2022/05/13 07:10:48;;;;;;;;;;;20.60;42.70;;;;;;5077106;28;20022;-50
2022/05/13 07:13:15;;;;;;;;;;;20.60;42.70;;;;;;5080504;28;19920;-48
2022/05/13 07:15:43;;;;;;;;;;;20.60;42.70;;;;;;5092418;28;20014;-51
2022/05/13 07:18:11;;;;;;;;;;;20.60;42.70;;;;;;5092632;28;19927;-53
2022/05/13 07:20:37;;;;;;;;;;;20.60;42.80;;;;;;5092349;28;19925;-52
2022/05/13 07:23:04;;;;;;;;;;;20.60;42.80;;;;;;5092991;28;19959;-48
2022/05/13 07:25:32;;;;;;;;;;;20.60;42.80;;;;;;5092150;28;19952;-48
2022/05/13 07:27:59;;;;;;;;;;;20.60;42.90;;;;;;5088079;28;19927;-50
2022/05/13 07:30:25;;;;;;;;;;;20.60;42.90;;;;;;5093022;28;19927;-53
2022/05/13 07:32:53;;;;;;;;;;;20.60;42.90;;;;;;5077610;28;19966;-48
2022/05/13 07:35:20;;;;;;;;;;;20.60;43.00;;;;;;5091093;28;19965;-52
2022/05/13 07:37:47;;;;;;;;;;;20.60;43.00;;;;;;5082359;28;20058;-57
2022/05/13 07:42:58;;;;;;;;;;;20.60;43.10;;;;;;5099321;28;20289;-51
2022/05/13 07:45:24;;;;;;;;;;;20.60;43.10;;;;;;5074811;28;20334;-49
2022/05/13 07:47:51;;;;;;;;;;;20.70;43.20;;;;;;5076427;28;19933;-52
2022/05/13 07:50:19;;;;;;;;;;;20.70;43.20;;;;;;5072825;28;20365;-57
2022/05/13 07:52:46;;;;;;;;;;;20.70;43.20;;;;;;5076070;28;19925;-50
2022/05/13 07:55:15;;;;;;;;;;;20.70;43.20;;;;;;5083182;28;19931;-52
2022/05/13 07:57:41;;;;;;;;;;;20.70;43.20;;;;;;5082531;28;19927;-49
2022/05/13 08:00:27;;;;;;;;;;;20.70;43.70;;;;;;5078891;28;19928;-50
2022/05/13 08:02:55;;;;;;;;;;;20.70;43.10;;;;;;5090173;28;19967;-49
2022/05/13 08:05:23;;;;;;;;;;;20.70;43.10;;;;;;5097321;28;19939;-49
2022/05/13 08:07:56;;;;;;;;;;;20.70;43.10;;;;;;5074057;28;20249;-49
2022/05/13 08:10:23;;;;;;;;;;;20.70;43.10;;;;;;5098704;28;19919;-49
2022/05/13 08:12:50;;;;;;;;;;;20.70;43.20;;;;;;5085206;28;19955;-51
2022/05/13 08:15:16;;;;;;;;;;;20.70;43.20;;;;;;5102300;28;19924;-49
2022/05/13 08:17:43;;;;;;;;;;;20.70;43.20;;;;;;5097757;28;20448;-54
2022/05/13 08:20:11;;;;;;;;;;;20.70;43.10;;;;;;5085211;28;20390;-52
2022/05/13 08:22:39;;;;;;;;;;;20.70;43.10;;;;;;5086192;28;19972;-50
2022/05/13 08:25:07;;;;;;;;;;;20.80;43.20;;;;;;5077708;28;19930;-49
2022/05/13 08:27:34;;;;;;;;;;;20.70;43.10;;;;;;5077463;28;19920;-54
2022/05/13 08:30:01;;;;;;;;;;;20.80;43.20;;;;;;5085518;28;20019;-51
2022/05/13 08:32:28;;;;;;;;;;;20.80;43.20;;;;;;5100331;28;19926;-54
2022/05/13 08:34:54;;;;;;;;;;;20.80;43.20;;;;;;5078168;28;19921;-51
2022/05/13 08:37:21;;;;;;;;;;;20.80;43.20;;;;;;5080665;28;20035;-53
2022/05/13 08:39:49;;;;;;;;;;;20.80;43.20;;;;;;5078646;28;20010;-55
2022/05/13 08:42:20;;;;;;;;;;;20.80;43.20;;;;;;5097854;28;19930;-51
2022/05/13 08:44:47;;;;;;;;;;;20.70;43.10;;;;;;5076751;28;19962;-49
2022/05/13 08:47:15;;;;;;;;;;;20.80;43.20;;;;;;5087786;28;19951;-51
2022/05/13 08:49:44;;;;;;;;;;;20.80;43.20;;;;;;5054448;28;19931;-50
2022/05/13 08:55:03;;;;;;;;;;;20.80;43.20;;;;;;5082289;28;19920;-54
2022/05/13 08:57:30;;;;;;;;;;;20.80;43.20;;;;;;5080008;28;19969;-55
2022/05/13 08:59:58;;;;;;;;;;;20.80;43.20;;;;;;5082861;28;19924;-56
2022/05/13 09:02:25;;;;;;;;;;;20.80;43.20;;;;;;5076840;28;19920;-52
2022/05/13 09:04:53;;;;;;;;;;;20.80;43.20;;;;;;5071770;28;20008;-52
2022/05/13 09:07:20;;;;;;;;;;;20.80;43.20;;;;;;5089959;28;19920;-55
2022/05/13 09:09:50;;;;;;;;;;;20.80;43.20;;;;;;5085227;28;19942;-56
2022/05/13 09:12:19;;;;;;;;;;;20.80;43.20;;;;;;5092564;28;20094;-53
2022/05/13 09:14:46;;;;;;;;;;;20.80;43.20;;;;;;5078914;28;19921;-52
2022/05/13 09:17:17;;;;;;;;;;;20.80;43.20;;;;;;5068815;28;19929;-50
2022/05/13 09:19:44;;;;;;;;;;;20.80;43.20;;;;;;5078575;28;19924;-53
2022/05/13 09:22:12;;;;;;;;;;;20.80;43.20;;;;;;5076335;28;20365;-49
2022/05/13 09:24:39;;;;;;;;;;;20.80;43.20;;;;;;5099870;28;20265;-53
2022/05/13 09:27:06;;;;;;;;;;;20.80;43.20;;;;;;5081282;28;19956;-50
2022/05/13 09:29:39;;;;;;;;;;;20.80;43.20;;;;;;5073745;28;20020;-53
2022/05/13 09:32:07;;;;;;;;;;;20.80;43.20;;;;;;5093628;28;20162;-54
2022/05/13 09:34:35;;;;;;;;;;;20.80;43.20;;;;;;5083116;28;19928;-54
2022/05/13 09:37:06;;;;;;;;;;;20.80;43.20;;;;;;5076747;28;19929;-48
2022/05/13 09:39:35;;;;;;;;;;;20.80;43.20;;;;;;5073945;28;20416;-56
2022/05/13 09:42:09;;;;;;;;;;;20.80;43.10;;;;;;5095873;28;19921;-54
2022/05/13 09:44:36;;;;;;;;;;;20.90;43.20;;;;;;5083522;28;19924;-55
2022/05/13 09:47:11;;;;;;;;;;;20.90;43.20;;;;;;5076691;28;19967;-54
2022/05/13 09:49:39;;;;;;;;;;;20.80;43.20;;;;;;5074822;28;20361;-55
2022/05/13 09:52:08;;;;;;;;;;;20.90;43.20;;;;;;5079092;28;20016;-52
2022/05/13 09:54:35;;;;;;;;;;;20.80;43.20;;;;;;5097992;28;19920;-57
2022/05/13 09:57:06;;;;;;;;;;;20.90;43.20;;;;;;5084337;28;19963;-55
2022/05/13 09:59:35;;;;;;;;;;;20.90;43.20;;;;;;5078617;28;19920;-56
2022/05/13 10:02:13;;;;;;;;;;;20.90;43.20;;;;;;5081820;28;20023;-56
2022/05/13 10:04:40;;;;;;;;;;;20.90;43.20;;;;;;5081889;28;19920;-56
2022/05/13 10:07:08;;;;;;;;;;;20.90;43.20;;;;;;5080844;28;19966;-57
2022/05/13 10:15:14;;;;;;;;;;;20.90;43.30;;;;;;5080258;28;19921;-49
2022/05/13 10:17:44;;;;;;;;;;;20.90;43.30;;;;;;5083225;28;19920;-54
2022/05/13 10:20:11;;;;;;;;;;;20.90;43.20;;;;;;5068076;28;19932;-51
2022/05/13 10:22:39;;;;;;;;;;;20.90;43.20;;;;;;5096088;28;19978;-54
2022/05/13 10:25:07;;;;;;;;;;;20.90;43.20;;;;;;5096460;28;19947;-52
2022/05/13 10:27:35;;;;;;;;;;;20.90;43.20;;;;;;5083861;28;20388;-50
2022/05/13 10:30:04;;;;;;;;;;;20.90;43.30;;;;;;5096401;28;20011;-50
2022/05/13 10:32:34;;;;;;;;;;;20.90;43.30;;;;;;5074790;28;20250;-51
2022/05/13 10:35:05;;;;;;;;;;;20.90;43.30;;;;;;5093187;28;20296;-54
2022/05/13 10:37:34;;;;;;;;;;;20.90;43.30;;;;;;5082317;28;19959;-50
2022/05/13 10:40:02;;;;;;;;;;;20.90;43.30;;;;;;5080967;28;19920;-48
2022/05/13 10:42:30;;;;;;;;;;;20.90;43.40;;;;;;5085956;28;20015;-57
2022/05/13 10:44:59;;;;;;;;;;;20.90;43.40;;;;;;5075043;28;19920;-56
2022/05/13 10:47:27;;;;;;;;;;;20.90;43.40;;;;;;5070868;28;20273;-53
2022/05/13 10:49:54;;;;;;;;;;;20.90;43.40;;;;;;5092764;28;20028;-56
2022/05/13 10:52:34;;;;;;;;;;;20.90;43.40;;;;;;5073304;28;20014;-55
2022/05/13 10:55:03;;;;;;;;;;;20.90;43.40;;;;;;5080560;28;19986;-55
2022/05/13 10:57:32;;;;;;;;;;;20.90;43.40;;;;;;5079125;28;19921;-55
2022/05/13 11:00:02;;;;;;;;;;;20.90;43.50;;;;;;5073459;28;20269;-55
2022/05/13 11:02:40;;;;;;;;;;;20.90;43.50;;;;;;5095640;28;19956;-57
2022/05/13 11:05:08;;;;;;;;;;;20.90;43.50;;;;;;5063990;28;19920;-56
2022/05/13 11:07:37;;;;;;;;;;;20.90;43.50;;;;;;5072712;28;19924;-51
2022/05/13 11:10:08;;;;;;;;;;;20.90;43.50;;;;;;5081717;28;19920;-56
2022/05/13 11:12:43;;;;;;;;;;;20.90;43.60;;;;;;5092384;28;20354;-54
2022/05/13 11:15:13;;;;;;;;;;;20.90;43.70;;;;;;5077122;28;19971;-48
2022/05/13 11:17:41;;;;;;;;;;;20.90;43.70;;;;;;5084574;28;20292;-51
2022/05/13 11:20:10;;;;;;;;;;;20.90;43.80;;;;;;5080980;28;19985;-54
2022/05/13 11:22:38;;;;;;;;;;;20.90;43.80;;;;;;5095692;28;19965;-54
2022/05/13 11:28:00;;;;;;;;;;;20.90;43.70;;;;;;5082299;28;19920;-49
2022/05/13 11:30:29;;;;;;;;;;;20.90;43.70;;;;;;5077781;28;20392;-54
2022/05/13 11:32:56;;;;;;;;;;;21.00;43.80;;;;;;5082552;28;19996;-50
2022/05/13 11:35:47;;;;;;;;;;;21.00;43.80;;;;;;5083925;28;20325;-55
2022/05/13 11:38:17;;;;;;;;;;;21.00;43.90;;;;;;5053997;28;20325;-53
2022/05/13 11:40:47;;;;;;;;;;;21.00;43.80;;;;;;5093773;28;19943;-52
2022/05/13 11:43:30;;;;;;;;;;;21.00;43.90;;;;;;5099492;28;19920;-51
2022/05/13 11:46:03;;;;;;;;;;;21.00;43.90;;;;;;5082596;28;19970;-51
2022/05/13 11:48:30;;;;;;;;;;;21.00;43.90;;;;;;5072418;28;19971;-51
2022/05/13 11:51:01;;;;;;;;;;;21.00;43.90;;;;;;5079713;28;19920;-53
2022/05/13 11:53:45;;;;;;;;;;;21.00;43.90;;;;;;5095242;28;19920;-55
2022/05/13 11:56:32;;;;;;;;;;;21.00;44.00;;;;;;5083013;28;19972;-57
2022/05/13 11:59:01;;;;;;;;;;;21.00;43.90;;;;;;5070847;28;20433;-49
2022/05/13 12:01:46;;;;;;;;;;;21.00;44.00;;;;;;5080464;28;19932;-49
2022/05/13 12:04:27;;;;;;;;;;;21.00;43.90;;;;;;5091541;28;19921;-51
2022/05/13 12:06:55;;;;;;;;;;;21.00;44.00;;;;;;5087544;28;20277;-51
2022/05/13 12:09:24;;;;;;;;;;;21.10;44.00;;;;;;5092814;28;20011;-51
2022/05/13 12:11:52;;;;;;;;;;;21.10;44.00;;;;;;5079093;28;20122;-53
2022/05/13 12:14:21;;;;;;;;;;;21.10;44.10;;;;;;5085875;28;20138;-53
2022/05/13 12:16:48;;;;;;;;;;;21.10;44.10;;;;;;5097845;28;19920;-49
2022/05/13 12:19:21;;;;;;;;;;;21.10;44.10;;;;;;5081500;28;20482;-57
2022/05/13 12:21:49;;;;;;;;;;;21.10;44.20;;;;;;5078155;28;19920;-53
2022/05/13 12:24:17;;;;;;;;;;;21.00;44.10;;;;;;5080181;28;19963;-51
2022/05/13 12:27:06;;;;;;;;;;;21.00;44.10;;;;;;5096545;28;20029;-53
2022/05/13 12:29:42;;;;;;;;;;;21.10;44.20;;;;;;5075725;28;19943;-51
2022/05/13 12:32:10;;;;;;;;;;;21.00;44.10;;;;;;5089613;28;20311;-51
2022/05/13 12:37:36;;;;;;;;;;;21.10;44.20;;;;;;5086062;28;19924;-51
2022/05/13 12:40:09;;;;;;;;;;;21.10;44.20;;;;;;5079494;28;19971;-53
2022/05/13 12:42:40;;;;;;;;;;;21.10;44.20;;;;;;5077014;28;19920;-54
2022/05/13 12:45:09;;;;;;;;;;;21.10;44.30;;;;;;5094100;28;19967;-51
2022/05/13 12:47:51;;;;;;;;;;;21.10;44.30;;;;;;5080318;28;19924;-54
2022/05/13 12:50:21;;;;;;;;;;;21.10;44.30;;;;;;5072068;28;19932;-54
2022/05/13 12:52:48;;;;;;;;;;;21.10;44.40;;;;;;5080598;28;20361;-54
2022/05/13 12:55:19;;;;;;;;;;;21.10;44.30;;;;;;5057328;28;19927;-52
2022/05/13 12:57:47;;;;;;;;;;;21.10;44.40;;;;;;5079725;28;19920;-48
2022/05/13 13:00:16;;;;;;;;;;;21.10;44.40;;;;;;5072411;28;19920;-52
2022/05/13 13:02:43;;;;;;;;;;;21.10;44.40;;;;;;5077630;28;19981;-57
2022/05/13 13:05:12;;;;;;;;;;;21.10;44.40;;;;;;5078432;28;20334;-54
2022/05/13 13:07:39;;;;;;;;;;;21.10;44.30;;;;;;5085277;28;20382;-52
2022/05/13 13:10:06;;;;;;;;;;;21.10;44.40;;;;;;5102800;28;19921;-52
2022/05/13 13:12:34;;;;;;;;;;;21.10;44.40;;;;;;5089554;28;20250;-49
2022/05/13 13:15:03;;;;;;;;;;;21.10;44.40;;;;;;5072903;28;19920;-56
2022/05/13 13:17:33;;;;;;;;;;;21.10;44.40;;;;;;5070921;28;20028;-54
2022/05/13 13:20:00;;;;;;;;;;;21.10;45.00;;;;;;5084626;28;20229;-52
2022/05/13 13:22:28;;;;;;;;;;;21.10;44.40;;;;;;5069835;28;19966;-53
2022/05/13 13:24:55;;;;;;;;;;;21.10;44.40;;;;;;5075418;28;19920;-52
2022/05/13 13:27:22;;;;;;;;;;;21.10;44.30;;;;;;5086547;28;19971;-53
2022/05/13 13:29:49;;;;;;;;;;;21.10;44.30;;;;;;5077075;28;19967;-51
2022/05/13 13:32:16;;;;;;;;;;;21.10;44.30;;;;;;5083278;28;19967;-53
2022/05/13 13:34:50;;;;;;;;;;;21.10;44.30;;;;;;5078581;28;20011;-52
2022/05/13 13:37:17;;;;;;;;;;;21.10;44.30;;;;;;5069863;28;20360;-54
2022/05/13 13:39:44;;;;;;;;;;;21.10;44.30;;;;;;5078463;28;19924;-52
2022/05/13 13:42:11;;;;;;;;;;;21.10;44.30;;;;;;5071983;28;19925;-53
2022/05/13 13:44:38;;;;;;;;;;;21.10;44.30;;;;;;5074080;28;20448;-51
2022/05/13 13:47:06;;;;;;;;;;;21.10;44.30;;;;;;5073720;28;19920;-53
2022/05/13 13:49:33;;;;;;;;;;;21.10;44.20;;;;;;5084042;27;19927;-53
2022/05/13 13:52:02;;;;;;;;;;;21.10;44.30;;;;;;5072027;28;19962;-51
2022/05/13 13:54:34;;;;;;;;;;;21.10;44.20;;;;;;5067366;28;19920;-55
2022/05/13 13:57:06;;;;;;;;;;;21.10;44.20;;;;;;5078575;28;19939;-54
2022/05/13 13:59:34;;;;;;;;;;;21.10;44.20;;;;;;5075288;28;19924;-48
2022/05/13 14:02:01;;;;;;;;;;;21.10;44.20;;;;;;5075747;28;19927;-57
2022/05/13 14:04:28;;;;;;;;;;;21.10;44.20;;;;;;5089895;28;19920;-53
2022/05/13 14:06:55;;;;;;;;;;;21.10;44.10;;;;;;5081083;28;20005;-51
2022/05/13 14:09:24;;;;;;;;;;;21.10;44.10;;;;;;5087437;28;20110;-54
2022/05/13 14:11:51;;;;;;;;;;;21.10;44.10;;;;;;5072455;28;19920;-55
2022/05/13 14:14:18;;;;;;;;;;;21.10;44.00;;;;;;5096471;28;20296;-51
2022/05/13 14:16:49;;;;;;;;;;;21.10;44.10;;;;;;5079307;28;19919;-57
2022/05/13 14:19:19;;;;;;;;;;;21.10;44.00;;;;;;5082098;28;19920;-51
2022/05/13 14:21:48;;;;;;;;;;;21.10;44.10;;;;;;5080045;28;19940;-48
2022/05/13 14:24:14;;;;;;;;;;;21.10;44.60;;;;;;5078614;28;19996;-56
2022/05/13 14:26:49;;;;;;;;;;;21.10;44.00;;;;;;5075238;28;19978;-54
2022/05/13 14:29:17;;;;;;;;;;;21.10;44.00;;;;;;5076097;28;19952;-51
2022/05/13 14:31:44;;;;;;;;;;;21.10;44.00;;;;;;5084662;28;19927;-54
2022/05/13 14:34:11;;;;;;;;;;;21.10;44.00;;;;;;5089227;28;19931;-49
2022/05/13 14:36:38;;;;;;;;;;;21.10;44.00;;;;;;5103593;28;19920;-52
2022/05/13 14:41:52;;;;;;;;;;;21.10;44.00;;;;;;5079190;28;20065;-48
2022/05/13 14:44:21;;;;;;;;;;;21.10;44.00;;;;;;5083130;28;19921;-48
2022/05/13 14:46:55;;;;;;;;;;;21.10;43.90;;;;;;5082871;28;20015;-52
2022/05/13 14:49:32;;;;;;;;;;;21.10;43.90;;;;;;5086413;28;20011;-54
2022/05/13 14:51:58;;;;;;;;;;;21.10;43.90;;;;;;5079368;28;20255;-51
2022/05/13 14:54:26;;;;;;;;;;;21.10;43.90;;;;;;5106433;28;19966;-51
2022/05/13 14:56:54;;;;;;;;;;;21.10;43.90;;;;;;5087929;28;19927;-51
2022/05/13 14:59:22;;;;;;;;;;;21.10;43.80;;;;;;5072719;28;19959;-51